Observation data for Goodlett on 08/20/2019      Previous  Date  Next       Current Mesonet Observations  Soil Data  Daily Summary Page  Observations in Plain Language
KGDS 200500Z 14012KT 31/16 A2996 RMK A01 T03100162  RH  043%=      5-min Rain = 0
KGDS 200505Z 14011KT 31/16 A2996 RMK A01 T03100163  RH  043%=      5-min Rain = 0
KGDS 200510Z 14011KT 31/16 A2996 RMK A01 T03090163  RH  043%=      5-min Rain = 0
KGDS 200515Z 14011KT 31/16 A2997 RMK A01 T03090163  RH  044%=      5-min Rain = 0
KGDS 200520Z 15011KT 31/16 A2997 RMK A01 T03080164  RH  044%=      5-min Rain = 0
KGDS 200525Z 15010KT 31/16 A2997 RMK A01 T03070164  RH  044%=      5-min Rain = 0
KGDS 200530Z 15010KT 31/16 A2997 RMK A01 T03050164  RH  045%=      5-min Rain = 0
KGDS 200535Z 14011KT 31/17 A2997 RMK A01 T03050165  RH  045%=      5-min Rain = 0
KGDS 200540Z 15010KT 30/17 A2997 RMK A01 T03030165  RH  046%=      5-min Rain = 0
KGDS 200545Z 14010KT 30/17 A2997 RMK A01 T03020166  RH  046%=      5-min Rain = 0
KGDS 200550Z 15010KT 30/17 A2997 RMK A01 T03010166  RH  046%=      5-min Rain = 0
KGDS 200555Z 15010KT 30/17 A2998 RMK A01 T02990166  RH  047%=      5-min Rain = 0
KGDS 200600Z 15009KT 30/17 A2998 RMK A01 T02980166  RH  047%=      5-min Rain = 0
KGDS 200605Z 15008KT 30/17 A2998 RMK A01 T02970167  RH  048%=      5-min Rain = 0
KGDS 200610Z 15008KT 30/17 A2998 RMK A01 T02950167  RH  048%=      5-min Rain = 0
KGDS 200615Z 15008KT 29/17 A2998 RMK A01 T02940168  RH  049%=      5-min Rain = 0
KGDS 200620Z 14008KT 29/17 A2998 RMK A01 T02930168  RH  049%=      5-min Rain = 0
KGDS 200625Z 14009KT 29/17 A2998 RMK A01 T02920168  RH  050%=      5-min Rain = 0
KGDS 200630Z 14009KT 29/17 A2998 RMK A01 T02910168  RH  050%=      5-min Rain = 0
KGDS 200635Z 14009KT 29/17 A2998 RMK A01 T02900169  RH  050%=      5-min Rain = 0
KGDS 200640Z 14009KT 29/17 A2998 RMK A01 T02890169  RH  051%=      5-min Rain = 0
KGDS 200645Z 14009KT 29/17 A2998 RMK A01 T02890169  RH  051%=      5-min Rain = 0
KGDS 200650Z 15009KT 29/17 A2998 RMK A01 T02890170  RH  051%=      5-min Rain = 0
KGDS 200655Z 15009KT 29/17 A2998 RMK A01 T02880170  RH  051%=      5-min Rain = 0
KGDS 200700Z 16009KT 29/17 A2998 RMK A01 T02890170  RH  051%=      5-min Rain = 0
KGDS 200705Z 16009KT 29/17 A2998 RMK A01 T02900171  RH  051%=      5-min Rain = 0
KGDS 200710Z 15009KT 29/17 A2998 RMK A01 T02910172  RH  051%=      5-min Rain = 0
KGDS 200715Z 15009KT 29/17 A2998 RMK A01 T02920172  RH  051%=      5-min Rain = 0
KGDS 200720Z 15009KT 29/17 A2998 RMK A01 T02920172  RH  051%=      5-min Rain = 0
KGDS 200725Z 15009KT 29/17 A2998 RMK A01 T02930172  RH  051%=      5-min Rain = 0
KGDS 200730Z 16009KT 29/17 A2998 RMK A01 T02930172  RH  050%=      5-min Rain = 0
KGDS 200735Z 16009KT 29/17 A2998 RMK A01 T02930172  RH  050%=      5-min Rain = 0
KGDS 200740Z 16009KT 29/17 A2997 RMK A01 T02930172  RH  050%=      5-min Rain = 0
KGDS 200745Z 16009KT 29/17 A2998 RMK A01 T02930171  RH  050%=      5-min Rain = 0
KGDS 200750Z 15008KT 29/17 A2998 RMK A01 T02910172  RH  051%=      5-min Rain = 0
KGDS 200755Z 15009KT 29/17 A2998 RMK A01 T02900171  RH  051%=      5-min Rain = 0
KGDS 200800Z 16009KT 29/17 A2997 RMK A01 T02890171  RH  051%=      5-min Rain = 0
KGDS 200805Z 16009KT 29/17 A2997 RMK A01 T02900171  RH  051%=      5-min Rain = 0
KGDS 200810Z 16009KT 29/17 A2997 RMK A01 T02880171  RH  052%=      5-min Rain = 0
KGDS 200815Z 16008KT 29/17 A2997 RMK A01 T02880171  RH  052%=      5-min Rain = 0
KGDS 200820Z 16009KT 29/17 A2998 RMK A01 T02870171  RH  052%=      5-min Rain = 0
KGDS 200825Z 15009KT 29/17 A2997 RMK A01 T02860171  RH  052%=      5-min Rain = 0
KGDS 200830Z 16008KT 29/17 A2997 RMK A01 T02850170  RH  052%=      5-min Rain = 0
KGDS 200835Z 16008KT 28/17 A2997 RMK A01 T02840171  RH  053%=      5-min Rain = 0
KGDS 200840Z 16008KT 28/17 A2997 RMK A01 T02840171  RH  053%=      5-min Rain = 0
KGDS 200845Z 16008KT 28/17 A2997 RMK A01 T02830171  RH  053%=      5-min Rain = 0
KGDS 200850Z 16008KT 28/17 A2998 RMK A01 T02820171  RH  054%=      5-min Rain = 0
KGDS 200855Z 16008KT 28/17 A2998 RMK A01 T02820171  RH  053%=      5-min Rain = 0
KGDS 200900Z 16008KT 28/17 A2998 RMK A01 T02820171  RH  054%=      5-min Rain = 0
KGDS 200905Z 16008KT 28/17 A2998 RMK A01 T02800172  RH  054%=      5-min Rain = 0
KGDS 200910Z 16008KT 28/17 A2998 RMK A01 T02780171  RH  055%=      5-min Rain = 0
KGDS 200915Z 16008KT 28/17 A2998 RMK A01 T02790171  RH  055%=      5-min Rain = 0
KGDS 200920Z 17008KT 28/17 A2998 RMK A01 T02780171  RH  055%=      5-min Rain = 0
KGDS 200925Z 17007KT 28/17 A2998 RMK A01 T02770171  RH  055%=      5-min Rain = 0
KGDS 200930Z 17007KT 28/17 A2998 RMK A01 T02760171  RH  056%=      5-min Rain = 0
KGDS 200935Z 17006KT 28/17 A2998 RMK A01 T02750171  RH  056%=      5-min Rain = 0
KGDS 200940Z 17007KT 28/17 A2998 RMK A01 T02760171  RH  056%=      5-min Rain = 0
KGDS 200945Z 17007KT 28/17 A2998 RMK A01 T02750171  RH  056%=      5-min Rain = 0
KGDS 200950Z 17006KT 28/17 A2998 RMK A01 T02760171  RH  056%=      5-min Rain = 0
KGDS 200955Z 17006KT 28/17 A2998 RMK A01 T02750172  RH  056%=      5-min Rain = 0
KGDS 201000Z 18006KT 28/17 A2998 RMK A01 T02750172  RH  056%=      5-min Rain = 0
KGDS 201005Z 18006KT 27/17 A2998 RMK A01 T02740172  RH  056%=      5-min Rain = 0
KGDS 201010Z 18007KT 28/17 A2998 RMK A01 T02760172  RH  056%=      5-min Rain = 0
KGDS 201015Z 18007KT 28/17 A2998 RMK A01 T02750172  RH  056%=      5-min Rain = 0
KGDS 201020Z 18007KT 27/17 A2999 RMK A01 T02730172  RH  057%=      5-min Rain = 0
KGDS 201025Z 18006KT 27/17 A2999 RMK A01 T02720172  RH  057%=      5-min Rain = 0
KGDS 201030Z 19006KT 27/17 A2999 RMK A01 T02700172  RH  058%=      5-min Rain = 0
KGDS 201035Z 19007KT 27/17 A2999 RMK A01 T02690172  RH  058%=      5-min Rain = 0
KGDS 201040Z 18007KT 27/17 A2999 RMK A01 T02690172  RH  058%=      5-min Rain = 0
KGDS 201045Z 18008KT 27/17 A2999 RMK A01 T02700172  RH  058%=      5-min Rain = 0
KGDS 201050Z 18007KT 27/17 A2999 RMK A01 T02700172  RH  058%=      5-min Rain = 0
KGDS 201055Z 17007KT 27/17 A2999 RMK A01 T02670172  RH  059%=      5-min Rain = 0
KGDS 201100Z 17007KT 27/17 A2999 RMK A01 T02660172  RH  059%=      5-min Rain = 0
KGDS 201105Z 17007KT 26/17 A2999 RMK A01 T02640172  RH  060%=      5-min Rain = 0
KGDS 201110Z 17006KT 26/17 A2999 RMK A01 T02630172  RH  060%=      5-min Rain = 0
KGDS 201115Z 17006KT 26/17 A2999 RMK A01 T02610172  RH  061%=      5-min Rain = 0
KGDS 201120Z 17006KT 26/17 A2999 RMK A01 T02610172  RH  061%=      5-min Rain = 0
KGDS 201125Z 17005KT 26/17 A30 RMK A01 T02590172  RH  062%=      5-min Rain = 0
KGDS 201130Z 18005KT 26/17 A30 RMK A01 T02590172  RH  062%=      5-min Rain = 0
KGDS 201135Z 18005KT 26/17 A30 RMK A01 T02580172  RH  062%=      5-min Rain = 0
KGDS 201140Z 18006KT 26/17 A30 RMK A01 T02610172  RH  061%=      5-min Rain = 0
KGDS 201145Z 18005KT 26/17 A30 RMK A01 T02600172  RH  061%=      5-min Rain = 0
KGDS 201150Z 18004KT 26/17 A30 RMK A01 T02610172  RH  061%=      5-min Rain = 0
KGDS 201155Z 18004KT 26/17 A30 RMK A01 T02580172  RH  062%=      5-min Rain = 0
KGDS 201200Z 18004KT 25/17 A30 RMK A01 T02540172  RH  064%=      5-min Rain = 0
KGDS 201205Z 19004KT 25/17 A30 RMK A01 T02530172  RH  064%=      5-min Rain = 0
KGDS 201210Z 20004KT 25/17 A30 RMK A01 T02540172  RH  064%=      5-min Rain = 0
KGDS 201215Z 20005KT 25/17 A3001 RMK A01 T02530173  RH  064%=      5-min Rain = 0
KGDS 201220Z 20005KT 25/17 A3001 RMK A01 T02540174  RH  064%=      5-min Rain = 0
KGDS 201225Z 20005KT 25/17 A3001 RMK A01 T02530174  RH  065%=      5-min Rain = 0
KGDS 201230Z 20005KT 25/17 A3001 RMK A01 T02530174  RH  065%=      5-min Rain = 0
KGDS 201235Z 19005KT 26/18 A3001 RMK A01 T02550175  RH  064%=      5-min Rain = 0
KGDS 201240Z 18004KT 26/18 A3001 RMK A01 T02550176  RH  065%=      5-min Rain = 0
KGDS 201245Z 18003KT 26/18 A3002 RMK A01 T02570176  RH  064%=      5-min Rain = 0
KGDS 201250Z 16002KT 26/18 A3002 RMK A01 T02600177  RH  063%=      5-min Rain = 0
KGDS 201255Z 14003KT 26/18 A3002 RMK A01 T02620178  RH  063%=      5-min Rain = 0
KGDS 201300Z 13003KT 26/18 A3002 RMK A01 T02620178  RH  063%=      5-min Rain = 0
KGDS 201305Z 15004KT 27/18 A3002 RMK A01 T02650176  RH  061%=      5-min Rain = 0
KGDS 201310Z 16004KT 27/18 A3002 RMK A01 T02680175  RH  060%=      5-min Rain = 0
KGDS 201315Z 16004KT 27/18 A3002 RMK A01 T02690176  RH  060%=      5-min Rain = 0
KGDS 201320Z 17005KT 27/18 A3002 RMK A01 T02700176  RH  059%=      5-min Rain = 0
KGDS 201325Z 18004KT 27/18 A3002 RMK A01 T02720177  RH  059%=      5-min Rain = 0
KGDS 201330Z 18005KT 28/18 A3002 RMK A01 T02760178  RH  058%=      5-min Rain = 0
KGDS 201335Z 18005KT 28/18 A3002 RMK A01 T02770177  RH  057%=      5-min Rain = 0
KGDS 201340Z 19006KT 28/18 A3002 RMK A01 T02790177  RH  057%=      5-min Rain = 0
KGDS 201345Z 19006KT 28/18 A3003 RMK A01 T02820177  RH  056%=      5-min Rain = 0
KGDS 201350Z 21006KT 28/18 A3002 RMK A01 T02840176  RH  055%=      5-min Rain = 0
KGDS 201355Z 20007KT 29/18 A3002 RMK A01 T02880176  RH  054%=      5-min Rain = 0
KGDS 201400Z 21008KT 29/18 A3002 RMK A01 T02920177  RH  053%=      5-min Rain = 0
KGDS 201405Z 21008KT 30/18 A3002 RMK A01 T02950176  RH  051%=      5-min Rain = 0
KGDS 201410Z 21008KT 30/18 A3002 RMK A01 T02990176  RH  050%=      5-min Rain = 0
KGDS 201415Z 22009KT 30/17 A3002 RMK A01 T03010174  RH  049%=      5-min Rain = 0
KGDS 201420Z 21008KT 30/18 A3002 RMK A01 T03040175  RH  048%=      5-min Rain = 0
KGDS 201425Z 22010KT 31/17 A3002 RMK A01 T03080173  RH  047%=      5-min Rain = 0
KGDS 201430Z 22010KT 31/17 A3002 RMK A01 T03110174  RH  046%=      5-min Rain = 0
KGDS 201435Z 22011KT 31/17 A3002 RMK A01 T03120173  RH  046%=      5-min Rain = 0
KGDS 201440Z 23010KT 31/18 A3002 RMK A01 T03120175  RH  046%=      5-min Rain = 0
KGDS 201445Z 23011KT 32/17 A3002 RMK A01 T03150174  RH  045%=      5-min Rain = 0
KGDS 201450Z 22010KT 32/18 A3002 RMK A01 T03190176  RH  045%=      5-min Rain = 0
KGDS 201455Z 22011KT 32/18 A3002 RMK A01 T03220176  RH  044%=      5-min Rain = 0
KGDS 201500Z 22012KT 32/18 A3002 RMK A01 T03230175  RH  044%=      5-min Rain = 0
KGDS 201505Z 23011KT 33/18 A3002 RMK A01 T03260176  RH  043%=      5-min Rain = 0
KGDS 201510Z 22012KT 33/18 A3002 RMK A01 T03280175  RH  042%=      5-min Rain = 0
KGDS 201515Z 23013KT 33/17 A3002 RMK A01 T03250174  RH  043%=      5-min Rain = 0
KGDS 201520Z 22011KT 33/18 A3002 RMK A01 T03260175  RH  043%=      5-min Rain = 0
KGDS 201525Z 22012KT 33/18 A3002 RMK A01 T03310177  RH  042%=      5-min Rain = 0
KGDS 201530Z 22010KT 33/18 A3002 RMK A01 T03340177  RH  042%=      5-min Rain = 0
KGDS 201535Z 23011KT 33/18 A3002 RMK A01 T03340176  RH  041%=      5-min Rain = 0
KGDS 201540Z 23010KT 33/18 A3002 RMK A01 T03330175  RH  041%=      5-min Rain = 0
KGDS 201545Z 22011KT 34/18 A3002 RMK A01 T03370175  RH  040%=      5-min Rain = 0
KGDS 201550Z 23010KT 34/18 A3002 RMK A01 T03390176  RH  040%=      5-min Rain = 0
KGDS 201555Z 23010KT 34/18 A3002 RMK A01 T03400175  RH  039%=      5-min Rain = 0
KGDS 201600Z 23009KT 34/18 A3002 RMK A01 T03440175  RH  039%=      5-min Rain = 0
KGDS 201605Z 22010KT 35/18 A3002 RMK A01 T03450176  RH  039%=      5-min Rain = 0
KGDS 201610Z 24012KT 35/17 A3002 RMK A01 T03470174  RH  038%=      5-min Rain = 0
KGDS 201615Z 25010KT 35/17 A3003 RMK A01 T03480174  RH  038%=      5-min Rain = 0
KGDS 201620Z 24010KT 35/17 A3002 RMK A01 T03480174  RH  038%=      5-min Rain = 0
KGDS 201625Z 23010KT 35/17 A3002 RMK A01 T03490173  RH  037%=      5-min Rain = 0
KGDS 201630Z 23009G14KT 35/17 A3003 RMK A01 T03490173  RH  037%=      5-min Rain = 0
KGDS 201635Z 22008KT 35/18 A3003 RMK A01 T03500175  RH  037%=      5-min Rain = 0
KGDS 201640Z 21008KT 35/18 A3003 RMK A01 T03540176  RH  037%=      5-min Rain = 0
KGDS 201645Z 23008KT 36/17 A3003 RMK A01 T03580174  RH  036%=      5-min Rain = 0
KGDS 201650Z 21008KT 36/17 A3003 RMK A01 T03570174  RH  036%=      5-min Rain = 0
KGDS 201655Z 20006KT 36/17 A3003 RMK A01 T03590173  RH  035%=      5-min Rain = 0
KGDS 201700Z 19006KT 36/18 A3003 RMK A01 T03610175  RH  035%=      5-min Rain = 0
KGDS 201705Z 22006KT 36/17 A3003 RMK A01 T03620174  RH  035%=      5-min Rain = 0
KGDS 201710Z 22006KT 36/17 A3003 RMK A01 T03630173  RH  034%=      5-min Rain = 0
KGDS 201715Z 20006G11KT 36/17 A3003 RMK A01 T03620171  RH  034%=      5-min Rain = 0
KGDS 201720Z 24006KT 37/17 A3002 RMK A01 T03660167  RH  033%=      5-min Rain = 0
KGDS 201725Z 20006KT 37/17 A3002 RMK A01 T03650170  RH  033%=      5-min Rain = 0
KGDS 201730Z 17005KT 37/17 A3002 RMK A01 T03660171  RH  033%=      5-min Rain = 0
KGDS 201735Z 17003KT 36/17 A3002 RMK A01 T03630169  RH  034%=      5-min Rain = 0
KGDS 201740Z 06001G6KT 36/17 A3002 RMK A01 T03630169  RH  034%=      5-min Rain = 0
KGDS 201745Z 17005KT 37/17 A3002 RMK A01 T03680170  RH  033%=      5-min Rain = 0
KGDS 201750Z 19005KT 37/17 A3002 RMK A01 T03670170  RH  033%=      5-min Rain = 0
KGDS 201755Z 18004KT 37/17 A3002 RMK A01 T03700170  RH  033%=      5-min Rain = 0
KGDS 201800Z 17008G16KT 38/17 A3002 RMK A01 T03760170  RH  031%=      5-min Rain = 0
KGDS 201805Z 16007KT 37/17 A3002 RMK A01 T03720166  RH  031%=      5-min Rain = 0
KGDS 201810Z 12007G13KT 37/17 A3001 RMK A01 T03730166  RH  031%=      5-min Rain = 0
KGDS 201815Z 16008G14KT 38/16 A3001 RMK A01 T03770164  RH  030%=      5-min Rain = 0
KGDS 201820Z 18005G11KT 38/16 A3001 RMK A01 T03760160  RH  029%=      5-min Rain = 0
KGDS 201825Z 18007G13KT 38/16 A3001 RMK A01 T03800163  RH  029%=      5-min Rain = 0
KGDS 201830Z 18005KT 38/16 A3001 RMK A01 T03790159  RH  029%=      5-min Rain = 0
KGDS 201835Z 24003G9KT 38/16 A30 RMK A01 T03780158  RH  029%=      5-min Rain = 0
KGDS 201840Z 17008G15KT 38/16 A30 RMK A01 T03790160  RH  029%=      5-min Rain = 0
KGDS 201845Z 19012KT 38/16 A30 RMK A01 T03840159  RH  028%=      5-min Rain = 0
KGDS 201850Z 19010G15KT 39/16 A30 RMK A01 T03870161  RH  028%=      5-min Rain = 0
KGDS 201855Z 19009G17KT 39/16 A30 RMK A01 T03870160  RH  028%=      5-min Rain = 0
KGDS 201900Z 20006G20KT 38/15 A30 RMK A01 T03810154  RH  028%=      5-min Rain = 0
KGDS 201905Z 18011G17KT 39/15 A30 RMK A01 T03870152  RH  026%=      5-min Rain = 0
KGDS 201910Z 17009G14KT 39/15 A30 RMK A01 T03860149  RH  026%=      5-min Rain = 0
KGDS 201915Z 15006KT 39/15 A30 RMK A01 T03850150  RH  026%=      5-min Rain = 0
KGDS 201920Z 15010KT 39/16 A30 RMK A01 T03890155  RH  027%=      5-min Rain = 0
KGDS 201925Z 17008G13KT 39/16 A2999 RMK A01 T03860157  RH  027%=      5-min Rain = 0
KGDS 201930Z 16006G11KT 39/16 A2999 RMK A01 T03860158  RH  027%=      5-min Rain = 0
KGDS 201935Z 17010G17KT 39/16 A2999 RMK A01 T03870155  RH  027%=      5-min Rain = 0
KGDS 201940Z 18009G14KT 39/15 A2999 RMK A01 T03880153  RH  026%=      5-min Rain = 0
KGDS 201945Z 18006G12KT 38/15 A2998 RMK A01 T03840146  RH  026%=      5-min Rain = 0
KGDS 201950Z 17008G13KT 38/15 A2998 RMK A01 T03810149  RH  027%=      5-min Rain = 0
KGDS 201955Z 16011KT 39/15 A2998 RMK A01 T03920146  RH  025%=      5-min Rain = 0
KGDS 202000Z 15009KT 39/15 A2998 RMK A01 T03930148  RH  025%=      5-min Rain = 0
KGDS 202005Z 16009G16KT 39/15 A2998 RMK A01 T03940154  RH  026%=      5-min Rain = 0
KGDS 202010Z 14005G11KT 39/15 A2998 RMK A01 T03890154  RH  026%=      5-min Rain = 0
KGDS 202015Z 17007G12KT 39/15 A2997 RMK A01 T03900153  RH  026%=      5-min Rain = 0
KGDS 202020Z 16007KT 38/15 A2997 RMK A01 T03830153  RH  027%=      5-min Rain = 0
KGDS 202025Z 16006KT 39/15 A2997 RMK A01 T03870154  RH  027%=      5-min Rain = 0
KGDS 202030Z 15008KT 39/15 A2996 RMK A01 T03940153  RH  025%=      5-min Rain = 0
KGDS 202035Z 13008G15KT 40/15 A2996 RMK A01 T03960151  RH  025%=      5-min Rain = 0
KGDS 202040Z 16010G15KT 39/15 A2996 RMK A01 T03910149  RH  025%=      5-min Rain = 0
KGDS 202045Z 15008G16KT 39/15 A2995 RMK A01 T03940147  RH  024%=      5-min Rain = 0
KGDS 202050Z 17008G18KT 40/15 A2995 RMK A01 T03980145  RH  024%=      5-min Rain = 0
KGDS 202055Z 20011KT 40/14 A2995 RMK A01 T03970140  RH  023%=      5-min Rain = 0
KGDS 202100Z 19008KT 40/14 A2995 RMK A01 T03950142  RH  024%=      5-min Rain = 0
KGDS 202105Z 17009KT 40/14 A2995 RMK A01 T04030142  RH  023%=      5-min Rain = 0
KGDS 202110Z 18009KT 40/14 A2995 RMK A01 T03950141  RH  023%=      5-min Rain = 0
KGDS 202115Z 18007G16KT 40/14 A2994 RMK A01 T03980141  RH  023%=      5-min Rain = 0
KGDS 202120Z 18011G16KT 40/14 A2994 RMK A01 T03990141  RH  023%=      5-min Rain = 0
KGDS 202125Z 17007G15KT 40/14 A2994 RMK A01 T03990141  RH  023%=      5-min Rain = 0
KGDS 202130Z 15011G16KT 40/15 A2994 RMK A01 T04020147  RH  023%=      5-min Rain = 0
KGDS 202135Z 15013G18KT 40/15 A2994 RMK A01 T04010150  RH  024%=      5-min Rain = 0
KGDS 202140Z 16011G17KT 40/15 A2994 RMK A01 T04030149  RH  024%=      5-min Rain = 0
KGDS 202145Z 16009G16KT 40/15 A2994 RMK A01 T04000148  RH  024%=      5-min Rain = 0
KGDS 202150Z 14014G19KT 40/15 A2994 RMK A01 T03980149  RH  024%=      5-min Rain = 0
KGDS 202155Z 15012KT 40/15 A2994 RMK A01 T03960148  RH  024%=      5-min Rain = 0
KGDS 202200Z 15012KT 40/15 A2994 RMK A01 T03950145  RH  024%=      5-min Rain = 0
KGDS 202205Z 15010KT 39/15 A2994 RMK A01 T03930145  RH  024%=      5-min Rain = 0
KGDS 202210Z 16010KT 40/14 A2993 RMK A01 T03950144  RH  024%=      5-min Rain = 0
KGDS 202215Z 15011G16KT 40/14 A2993 RMK A01 T03960143  RH  023%=      5-min Rain = 0
KGDS 202220Z 14012G22KT 39/14 A2993 RMK A01 T03940142  RH  024%=      5-min Rain = 0
KGDS 202225Z 16012KT 40/14 A2993 RMK A01 T03980142  RH  023%=      5-min Rain = 0
KGDS 202230Z 15014G20KT 40/14 A2993 RMK A01 T03950141  RH  023%=      5-min Rain = 0
KGDS 202235Z 13012G22KT 39/14 A2993 RMK A01 T03930140  RH  023%=      5-min Rain = 0
KGDS 202240Z 12014G19KT 39/14 A2993 RMK A01 T03930141  RH  024%=      5-min Rain = 0
KGDS 202245Z 16016G21KT 39/14 A2993 RMK A01 T03920142  RH  024%=      5-min Rain = 0
KGDS 202250Z 16016KT 39/14 A2993 RMK A01 T03910140  RH  024%=      5-min Rain = 0
KGDS 202255Z 15014KT 39/14 A2993 RMK A01 T03910139  RH  024%=      5-min Rain = 0
KGDS 202300Z 15016KT 39/14 A2993 RMK A01 T03900139  RH  024%=      5-min Rain = 0
KGDS 202305Z 14015G20KT 39/14 A2993 RMK A01 T03890138  RH  024%=      5-min Rain = 0
KGDS 202310Z 15014KT 39/14 A2993 RMK A01 T03880135  RH  023%=      5-min Rain = 0
KGDS 202315Z 16012KT 39/13 A2993 RMK A01 T03860134  RH  023%=      5-min Rain = 0
KGDS 202320Z 17011KT 38/13 A2993 RMK A01 T03830134  RH  024%=      5-min Rain = 0
KGDS 202325Z 17011KT 38/14 A2993 RMK A01 T03810135  RH  024%=      5-min Rain = 0
KGDS 202330Z 17011KT 38/14 A2993 RMK A01 T03780139  RH  025%=      5-min Rain = 0
KGDS 202335Z 17010KT 38/14 A2993 RMK A01 T03760141  RH  026%=      5-min Rain = 0
KGDS 202340Z 17008KT 37/14 A2993 RMK A01 T03740142  RH  026%=      5-min Rain = 0
KGDS 202345Z 17007KT 37/14 A2993 RMK A01 T03720142  RH  027%=      5-min Rain = 0
KGDS 202350Z 16008KT 37/14 A2994 RMK A01 T03700142  RH  027%=      5-min Rain = 0
KGDS 202355Z 15008KT 37/14 A2994 RMK A01 T03690142  RH  027%=      5-min Rain = 0
KGDS 210000Z 16007KT 37/14 A2994 RMK A01 T03700144  RH  027%=      5-min Rain = 0
KGDS 210005Z 16007KT 37/14 A2994 RMK A01 T03690144  RH  027%=      5-min Rain = 0
KGDS 210010Z 16006KT 37/14 A2994 RMK A01 T03690144  RH  027%=      5-min Rain = 0
KGDS 210015Z 17006KT 37/15 A2994 RMK A01 T03680145  RH  028%=      5-min Rain = 0
KGDS 210020Z 16006KT 37/15 A2994 RMK A01 T03660146  RH  028%=      5-min Rain = 0
KGDS 210025Z 17006KT 37/15 A2994 RMK A01 T03650146  RH  028%=      5-min Rain = 0
KGDS 210030Z 17007KT 36/15 A2993 RMK A01 T03630147  RH  029%=      5-min Rain = 0
KGDS 210035Z 16007KT 36/15 A2993 RMK A01 T03620146  RH  029%=      5-min Rain = 0
KGDS 210040Z 16008KT 36/15 A2993 RMK A01 T03600145  RH  029%=      5-min Rain = 0
KGDS 210045Z 15007KT 36/14 A2993 RMK A01 T03600144  RH  029%=      5-min Rain = 0
KGDS 210050Z 14007KT 36/14 A2994 RMK A01 T03600144  RH  029%=      5-min Rain = 0
KGDS 210055Z 14008KT 36/15 A2993 RMK A01 T03580146  RH  030%=      5-min Rain = 0
KGDS 210100Z 14008KT 36/15 A2994 RMK A01 T03590150  RH  030%=      5-min Rain = 0
KGDS 210105Z 14010KT 36/15 A2994 RMK A01 T03580149  RH  030%=      5-min Rain = 0
KGDS 210110Z 14011KT 36/15 A2994 RMK A01 T03580148  RH  030%=      5-min Rain = 0
KGDS 210115Z 14010G15KT 36/15 A2994 RMK A01 T03550148  RH  030%=      5-min Rain = 0
KGDS 210120Z 14010KT 35/15 A2994 RMK A01 T03540148  RH  030%=      5-min Rain = 0
KGDS 210125Z 14009KT 35/15 A2995 RMK A01 T03510148  RH  031%=      5-min Rain = 0
KGDS 210130Z 14008KT 35/15 A2995 RMK A01 T03480148  RH  032%=      5-min Rain = 0
KGDS 210135Z 15009KT 35/15 A2995 RMK A01 T03460148  RH  032%=      5-min Rain = 0
KGDS 210140Z 15009KT 35/15 A2995 RMK A01 T03450148  RH  032%=      5-min Rain = 0
KGDS 210145Z 15009KT 34/15 A2995 RMK A01 T03420149  RH  033%=      5-min Rain = 0
KGDS 210150Z 15009KT 34/15 A2995 RMK A01 T03400149  RH  033%=      5-min Rain = 0
KGDS 210155Z 15008KT 34/15 A2995 RMK A01 T03370149  RH  034%=      5-min Rain = 0
KGDS 210200Z 15007KT 34/15 A2995 RMK A01 T03350149  RH  034%=      5-min Rain = 0
KGDS 210205Z 15007KT 33/15 A2995 RMK A01 T03300150  RH  035%=      5-min Rain = 0
KGDS 210210Z 15007KT 33/15 A2995 RMK A01 T03260150  RH  036%=      5-min Rain = 0
KGDS 210215Z 15007KT 32/15 A2995 RMK A01 T03230150  RH  037%=      5-min Rain = 0
KGDS 210220Z 14007KT 32/15 A2995 RMK A01 T03210150  RH  037%=      5-min Rain = 0
KGDS 210225Z 15006KT 32/15 A2996 RMK A01 T03180151  RH  038%=      5-min Rain = 0
KGDS 210230Z 15006KT 32/15 A2996 RMK A01 T03150151  RH  039%=      5-min Rain = 0
KGDS 210235Z 15006KT 31/15 A2996 RMK A01 T03140151  RH  039%=      5-min Rain = 0
KGDS 210240Z 15006KT 31/15 A2997 RMK A01 T03120151  RH  039%=      5-min Rain = 0
KGDS 210245Z 15006KT 31/15 A2997 RMK A01 T03100151  RH  040%=      5-min Rain = 0
KGDS 210250Z 14006KT 31/15 A2998 RMK A01 T03080152  RH  041%=      5-min Rain = 0
KGDS 210255Z 14006KT 31/15 A2998 RMK A01 T03060153  RH  041%=      5-min Rain = 0
KGDS 210300Z 14007KT 31/15 A2998 RMK A01 T03050152  RH  041%=      5-min Rain = 0
KGDS 210305Z 14007KT 31/15 A2998 RMK A01 T03060151  RH  041%=      5-min Rain = 0
KGDS 210310Z 13007KT 31/15 A2998 RMK A01 T03080151  RH  040%=      5-min Rain = 0
KGDS 210315Z 13007KT 31/15 A2999 RMK A01 T03070151  RH  040%=      5-min Rain = 0
KGDS 210320Z 13007KT 31/15 A2999 RMK A01 T03070151  RH  041%=      5-min Rain = 0
KGDS 210325Z 13007KT 31/15 A2999 RMK A01 T03070150  RH  040%=      5-min Rain = 0
KGDS 210330Z 13007KT 31/15 A2999 RMK A01 T03070150  RH  040%=      5-min Rain = 0
KGDS 210335Z 14007KT 30/15 A2999 RMK A01 T03040150  RH  041%=      5-min Rain = 0
KGDS 210340Z 14007KT 30/15 A2999 RMK A01 T03030149  RH  041%=      5-min Rain = 0
KGDS 210345Z 15007KT 30/15 A2999 RMK A01 T03030149  RH  041%=      5-min Rain = 0
KGDS 210350Z 16006KT 30/15 A2999 RMK A01 T03020149  RH  041%=      5-min Rain = 0
KGDS 210355Z 16006KT 30/15 A2999 RMK A01 T03000150  RH  042%=      5-min Rain = 0
KGDS 210400Z 16006KT 30/15 A2999 RMK A01 T02980151  RH  043%=      5-min Rain = 0
KGDS 210405Z 16006KT 30/15 A2999 RMK A01 T02970151  RH  043%=      5-min Rain = 0
KGDS 210410Z 16007KT 30/15 A2999 RMK A01 T02980152  RH  043%=      5-min Rain = 0
KGDS 210415Z 15007KT 30/15 A2999 RMK A01 T02990152  RH  043%=      5-min Rain = 0
KGDS 210420Z 15008KT 30/15 A2999 RMK A01 T03000153  RH  043%=      5-min Rain = 0
KGDS 210425Z 15007KT 30/15 A2999 RMK A01 T02980153  RH  043%=      5-min Rain = 0
KGDS 210430Z 15007KT 30/15 A2999 RMK A01 T02960153  RH  044%=      5-min Rain = 0
KGDS 210435Z 15007KT 30/15 A2999 RMK A01 T02950154  RH  044%=      5-min Rain = 0
KGDS 210440Z 15007KT 30/15 A2999 RMK A01 T02950154  RH  044%=      5-min Rain = 0
KGDS 210445Z 16006KT 30/16 A2999 RMK A01 T02950155  RH  045%=      5-min Rain = 0
KGDS 210450Z 15007KT 29/16 A2999 RMK A01 T02920155  RH  045%=      5-min Rain = 0
KGDS 210455Z 15007KT 29/16 A2999 RMK A01 T02930155  RH  045%=      5-min Rain = 0

Page generated in 0.0092 seconds.